createdAt,value
2023-05-20T00:02:34.271Z,59.23
2023-05-20T00:12:45.100Z,59.49
2023-05-20T00:22:55.899Z,60.14
2023-05-20T00:33:06.909Z,60.64
2023-05-20T05:48:50.732Z,65.95
2023-05-20T05:59:04.862Z,65.39
2023-05-20T06:09:14.749Z,65.15
2023-05-20T06:19:25.963Z,64.43
2023-05-20T06:29:36.554Z,64.18
2023-05-20T06:39:47.908Z,64.19
2023-05-20T06:49:58.473Z,63.87
2023-05-20T07:00:11.486Z,63.26
2023-05-20T07:10:21.181Z,62.76
2023-05-20T07:20:32.215Z,62.61
2023-05-20T07:30:43.005Z,62.40
2023-05-20T07:40:52.606Z,62.13
2023-05-20T07:51:02.397Z,61.37
2023-05-20T08:01:12.559Z,60.49
2023-05-20T08:11:22.575Z,58.77
2023-05-20T08:21:33.710Z,58.12
2023-05-20T08:31:43.491Z,57.56
2023-05-20T08:41:53.547Z,57.39
2023-05-20T08:52:03.274Z,57.79
2023-05-20T09:02:12.896Z,57.56
2023-05-20T09:12:23.664Z,57.63
2023-05-20T09:22:32.968Z,57.70
2023-05-20T09:32:43.844Z,57.21
2023-05-20T09:42:53.915Z,56.54
2023-05-20T09:53:04.788Z,57.25
2023-05-20T10:03:14.957Z,57.23
2023-05-20T10:13:27.602Z,56.62
2023-05-20T10:23:38.551Z,56.01
2023-05-20T10:33:52.507Z,55.51
2023-05-20T10:44:02.101Z,55.35
2023-05-20T10:54:12.221Z,54.20
2023-05-20T11:04:22.260Z,54.31
2023-05-20T11:14:32.176Z,53.77
2023-05-20T11:24:43.224Z,50.09
2023-05-20T11:34:53.478Z,49.57
2023-05-20T11:45:03.679Z,49.42
2023-05-20T11:55:14.544Z,47.08
2023-05-20T12:05:25.157Z,45.78
2023-05-20T12:15:36.089Z,43.85
2023-05-20T12:25:46.365Z,42.94
2023-05-20T12:35:57.430Z,38.76
2023-05-20T12:46:06.967Z,41.17
2023-05-20T12:56:17.409Z,37.92
2023-05-20T13:06:27.772Z,38.06
2023-05-20T13:16:37.399Z,39.04
2023-05-20T13:26:47.135Z,39.88
2023-05-20T13:36:57.958Z,37.45
2023-05-20T13:47:10.401Z,35.38
2023-05-20T13:57:21.630Z,35.62
2023-05-20T14:07:31.052Z,36.73
2023-05-20T14:17:40.754Z,37.80
2023-05-20T14:27:50.311Z,38.79
2023-05-20T14:38:00.005Z,40.77
2023-05-20T14:48:10.009Z,41.20
2023-05-20T14:58:19.798Z,41.69
2023-05-20T15:08:29.236Z,42.55
2023-05-20T15:18:39.357Z,43.27
2023-05-20T15:28:49.787Z,43.54
2023-05-20T15:38:59.715Z,44.02
2023-05-20T15:49:09.655Z,44.97
2023-05-20T15:59:20.261Z,44.60
2023-05-20T16:09:30.262Z,45.08
2023-05-20T16:19:40.329Z,45.36
2023-05-20T16:29:51.142Z,45.81
2023-05-20T16:40:01.247Z,46.16
2023-05-20T16:50:10.662Z,46.57
2023-05-20T17:00:20.314Z,47.52
2023-05-20T17:10:29.633Z,47.39
2023-05-20T17:20:39.618Z,48.51
2023-05-20T17:30:49.222Z,49.01
2023-05-20T17:40:59.010Z,49.44
2023-05-20T17:51:08.762Z,50.33
2023-05-20T18:01:18.445Z,50.77
2023-05-20T18:11:27.944Z,51.39
2023-05-20T18:21:37.899Z,51.81
2023-05-20T18:31:47.770Z,52.25
2023-05-20T18:41:57.404Z,52.94
2023-05-20T18:52:07.021Z,53.30
2023-05-20T19:02:17.364Z,54.32
2023-05-20T19:12:26.961Z,55.42
2023-05-20T19:22:37.728Z,55.41
2023-05-20T19:32:48.454Z,56.27
2023-05-20T19:42:58.232Z,56.74
2023-05-20T19:53:08.937Z,57.10
2023-05-20T20:03:18.990Z,57.41
2023-05-20T20:13:29.476Z,57.83
2023-05-20T20:23:41.552Z,58.06
2023-05-20T20:33:54.049Z,58.39
2023-05-20T20:44:04.778Z,59.37
2023-05-20T20:54:15.218Z,60.03
2023-05-20T21:04:24.794Z,60.37
2023-05-20T21:14:35.171Z,61.09
2023-05-20T21:24:45.923Z,61.11
2023-05-20T21:34:57.591Z,61.73
2023-05-20T21:45:08.309Z,61.98
2023-05-20T21:55:17.766Z,62.44
2023-05-20T22:05:28.261Z,63.01
2023-05-20T22:15:37.967Z,63.70
2023-05-20T22:25:47.781Z,63.46
2023-05-20T22:35:57.953Z,64.48
2023-05-20T22:46:09.004Z,64.67
2023-05-20T22:56:19.566Z,65.35
2023-05-20T23:06:29.524Z,65.53
2023-05-20T23:16:38.813Z,66.13
2023-05-20T23:26:49.301Z,66.66
2023-05-20T23:37:00.108Z,67.00
2023-05-20T23:47:09.709Z,67.21
2023-05-20T23:57:19.126Z,67.23
